Manteo, NC

8:40 PM EDT on April 20, 2018 (GMT -0400)
Dare County Regional

Weather History for KMQI - November, 2011

Change the Weather History Date:

Sunday, November 27, 2011

  Actual Average Record
Temperature  
Mean Temperature 58 °F -  
Max Temperature 69 °F 57 °F 76 °F (1985)
Min Temperature 46 °F 44 °F 29 °F (1977)
Degree Days  
Heating Degree Days 8    
Growing Degree Days 8 (Base 50)    
Moisture  
Dew Point 49 °F    
Average Humidity 70    
Maximum Humidity 94    
Minimum Humidity 46    
Precipitation  
Precipitation 0.00 in - - ()
Sea Level Pressure  
Sea Level Pressure 30.25 in    
Wind  
Wind Speed 5 mph (South)    
Max Wind Speed 13 mph    
Max Gust Speed 16 mph    
Visibility 10 miles    
Events      
Averages and records for this station are not official NWS values.
T = Trace of Precipitation, MM = Missing Value Source: NWS Daily Summary

Daily Weather History Graph

Daily Weather History Graph

Search for Another Location

Airport or City:

Astronomy

Nov. 27, 2011 Rise Set
Actual Time 6:50 AM EST 4:49 PM EST
Civil Twilight 6:22 AM EST 5:17 PM EST
Nautical Twilight 5:51 AM EST 5:49 PM EST
Astronomical Twilight 5:20 AM EST 6:19 PM EST
Moon 9:12 AM EST (11/27) 7:26 PM EST (11/27)
Length of Visible Light 10h 54m
Length of Day
9h 59m
Waxing Crescent, 8% of the Moon is Illuminated
Nov 27
Waxing Crescent
Dec 2
First Quarter
Dec 10
Full
Dec 17
Last Quarter
Dec 24
New

Hourly Weather History & Observations

Time (EST) Temp. Dew Point Humidity Pressure Visibility Wind Dir Wind Speed Gust Speed Precip Events Conditions
12:15 AM 55.4 °F 46.4 °F 72% 30.26 in 10.0 mi SW 9.2 mph - N/A   Clear
12:35 AM 53.6 °F 46.4 °F 77% 30.26 in 10.0 mi WSW 6.9 mph - N/A   Clear
12:55 AM 53.6 °F 46.4 °F 77% 30.26 in 10.0 mi WSW 6.9 mph - N/A   Scattered Clouds
1:15 AM 53.6 °F 44.6 °F 72% 30.26 in 10.0 mi WSW 8.1 mph - N/A   Clear
1:55 AM 53.6 °F 46.4 °F 77% 30.26 in 10.0 mi Calm Calm - N/A   Clear
2:15 AM 51.8 °F 44.6 °F 76% 30.26 in 10.0 mi Calm Calm - N/A   Clear
2:35 AM 51.8 °F 44.6 °F 76% 30.27 in 10.0 mi Calm Calm - N/A   Clear
2:55 AM 48.2 °F 42.8 °F 82% 30.27 in 10.0 mi Calm Calm - N/A   Clear
3:15 AM 46.4 °F 42.8 °F 87% 30.26 in 10.0 mi Calm Calm - N/A   Scattered Clouds
3:35 AM 46.4 °F 42.8 °F 87% 30.26 in 10.0 mi Calm Calm - N/A   Clear
3:55 AM 46.4 °F 42.8 °F 87% 30.26 in 10.0 mi Calm Calm - N/A   Clear
4:15 AM 50.0 °F 44.6 °F 82% 30.26 in 10.0 mi Calm Calm - N/A   Clear
4:35 AM 50.0 °F 44.6 °F 82% 30.26 in 10.0 mi Calm Calm - N/A   Clear
4:55 AM 50.0 °F 44.6 °F 82% 30.26 in 10.0 mi Calm Calm - N/A   Clear
5:15 AM 51.8 °F 46.4 °F 82% 30.26 in 10.0 mi Calm Calm - N/A   Clear
5:35 AM 51.8 °F 46.4 °F 82% 30.26 in 10.0 mi Calm Calm - N/A   Clear
5:55 AM 51.8 °F 46.4 °F 82% 30.27 in 10.0 mi Calm Calm - N/A   Clear
6:15 AM 50.0 °F 46.4 °F 87% 30.27 in 10.0 mi Calm Calm - N/A   Clear
6:35 AM 51.8 °F 48.2 °F 88% 30.27 in 10.0 mi Calm Calm - N/A   Clear
6:55 AM 51.8 °F 48.2 °F 88% 30.27 in 10.0 mi Calm Calm - N/A   Clear
7:15 AM 51.8 °F 50.0 °F 94% 30.27 in 10.0 mi Calm Calm - N/A   Clear
7:35 AM 53.6 °F 50.0 °F 88% 30.27 in 10.0 mi Calm Calm - N/A   Clear
7:55 AM 55.4 °F 51.8 °F 88% 30.27 in 10.0 mi Calm Calm - N/A   Clear
8:15 AM 57.2 °F 51.8 °F 82% 30.28 in 10.0 mi SSW 3.5 mph - N/A   Clear
8:35 AM 59.0 °F 53.6 °F 82% 30.28 in 10.0 mi SSW 4.6 mph - N/A   Clear
8:55 AM 59.0 °F 51.8 °F 77% 30.29 in 10.0 mi SSW 5.8 mph - N/A   Clear
9:15 AM 60.8 °F 51.8 °F 72% 30.29 in 10.0 mi SSW 5.8 mph - N/A   Clear
9:35 AM 62.6 °F 51.8 °F 68% 30.30 in 10.0 mi South 5.8 mph - N/A   Clear
9:55 AM 62.6 °F 51.8 °F 68% 30.30 in 10.0 mi South 5.8 mph - N/A   Clear
10:15 AM 64.4 °F 51.8 °F 64% 30.29 in 10.0 mi South 8.1 mph - N/A   Clear
10:35 AM 64.4 °F 51.8 °F 64% 30.29 in 10.0 mi SSW 8.1 mph - N/A   Clear
10:55 AM 68.0 °F 50.0 °F 52% 30.28 in 10.0 mi WSW 8.1 mph - N/A   Scattered Clouds
11:15 AM 66.2 °F 50.0 °F 56% 30.27 in 10.0 mi SW 8.1 mph - N/A   Mostly Cloudy
11:35 AM 68.0 °F 50.0 °F 52% 30.26 in 10.0 mi SSW 8.1 mph - N/A   Mostly Cloudy
11:55 AM 68.0 °F 50.0 °F 52% 30.25 in 10.0 mi South 6.9 mph - N/A   Mostly Cloudy
12:15 PM 69.8 °F 50.0 °F 49% 30.24 in 10.0 mi South 8.1 mph - N/A   Scattered Clouds
12:35 PM 69.8 °F 48.2 °F 46% 30.24 in 10.0 mi South 8.1 mph - N/A   Scattered Clouds
12:55 PM 69.8 °F 50.0 °F 49% 30.23 in 10.0 mi South 10.4 mph - N/A   Scattered Clouds
1:15 PM 69.8 °F 50.0 °F 49% 30.23 in 10.0 mi South 11.5 mph - N/A   Clear
1:35 PM 68.0 °F 50.0 °F 52% 30.22 in 10.0 mi South 12.7 mph 16.1 mph N/A   Scattered Clouds
1:55 PM 68.0 °F 48.2 °F 49% 30.22 in 10.0 mi South 10.4 mph - N/A   Scattered Clouds
2:15 PM 68.0 °F 48.2 °F 49% 30.22 in 10.0 mi South 10.4 mph - N/A   Clear
2:35 PM 68.0 °F 50.0 °F 52% 30.22 in 10.0 mi South 10.4 mph - N/A   Scattered Clouds
2:55 PM 66.2 °F 50.0 °F 56% 30.22 in 10.0 mi South 8.1 mph - N/A   Mostly Cloudy
3:15 PM 64.4 °F 50.0 °F 59% 30.22 in 10.0 mi South 6.9 mph - N/A   Mostly Cloudy
3:35 PM 64.4 °F 50.0 °F 59% 30.22 in 10.0 mi South 5.8 mph - N/A   Mostly Cloudy
3:55 PM 64.4 °F 50.0 °F 59% 30.22 in 10.0 mi South 5.8 mph - N/A   Scattered Clouds
4:15 PM 62.6 °F 51.8 °F 68% 30.22 in 10.0 mi South 5.8 mph - N/A   Mostly Cloudy
4:35 PM 62.6 °F 50.0 °F 63% 30.21 in 10.0 mi SSE 4.6 mph - N/A   Scattered Clouds
4:55 PM 62.6 °F 48.2 °F 59% 30.22 in 10.0 mi SE 5.8 mph - N/A   Scattered Clouds
5:15 PM 60.8 °F 50.0 °F 68% 30.21 in 10.0 mi SSE 5.8 mph - N/A   Scattered Clouds
5:35 PM 60.8 °F 51.8 °F 72% 30.22 in 10.0 mi SE 5.8 mph - N/A   Mostly Cloudy
5:55 PM 62.6 °F 51.8 °F 68% 30.22 in 10.0 mi SE 6.9 mph - N/A   Mostly Cloudy
6:15 PM 62.6 °F 51.8 °F 68% 30.21 in 10.0 mi SE 6.9 mph - N/A   Mostly Cloudy
6:35 PM 60.8 °F 51.8 °F 72% 30.22 in 10.0 mi SE 4.6 mph - N/A   Mostly Cloudy
6:55 PM 60.8 °F 51.8 °F 72% 30.22 in 10.0 mi SE 6.9 mph - N/A   Mostly Cloudy
7:15 PM 60.8 °F 51.8 °F 72% 30.21 in 10.0 mi SE 5.8 mph - N/A   Scattered Clouds
7:55 PM 60.8 °F 50.0 °F 68% 30.21 in 10.0 mi SE 5.8 mph - N/A   Scattered Clouds
8:15 PM 60.8 °F 50.0 °F 68% 30.21 in 10.0 mi SSE 6.9 mph - N/A   Scattered Clouds
8:35 PM 62.6 °F 48.2 °F 59% 30.20 in 10.0 mi SSE 6.9 mph - N/A   Mostly Cloudy
8:55 PM 62.6 °F 50.0 °F 63% 30.20 in 10.0 mi SSE 5.8 mph - N/A   Mostly Cloudy
9:15 PM 62.6 °F 50.0 °F 63% 30.20 in 10.0 mi SSE 6.9 mph - N/A   Mostly Cloudy
9:35 PM 64.4 °F 50.0 °F 59% 30.19 in 10.0 mi SSE 9.2 mph - N/A   Overcast
9:55 PM 62.6 °F 50.0 °F 63% 30.19 in 10.0 mi SSE 5.8 mph - N/A   Overcast
10:15 PM 62.6 °F 51.8 °F 68% 30.19 in 10.0 mi SSE 5.8 mph - N/A   Overcast
10:35 PM 64.4 °F 50.0 °F 59% 30.18 in 10.0 mi SSE 6.9 mph - N/A   Overcast
10:55 PM 64.4 °F 51.8 °F 64% 30.18 in 10.0 mi South 9.2 mph - N/A   Overcast
11:15 PM 62.6 °F 50.0 °F 63% 30.18 in 10.0 mi SSE 9.2 mph - N/A   Mostly Cloudy
11:35 PM 64.4 °F 48.2 °F 56% 30.17 in 10.0 mi SSE 9.2 mph - N/A   Mostly Cloudy